Hillsboro, OH

1:59 AM EST on December 27, 2014 (GMT -0500)
OHDOT 25-Highland County Garage | Change Station
CLOSE
Current Station
Personal Weather Station
Location: Hillsboro, OH
Elevation: 1100 ft
Nearby Weather Stations

Elev 1100 ft 39.20 °N, 83.60 °W | Updated 26 minutes ago

Partly Cloudy
Partly Cloudy
43 °F
Feels Like 43 °F
N
3
Wind Variable Wind from SSE
Gusts 6.0 mph

Today
High -- | Low -- °F
--% Chance of Precip.
Yesterday
High -- | Low -- °F
Precip. -- in
7:52 AM 5:18 PM
Waxing Crescent, 33% visible
Pressure 30.23 in
Visibility 10.0 miles
Clouds Scattered Clouds 5500 ft
Windchill 43 °F
Dew Point 33 °F
Humidity 66%
Rainfall -999.00 in
Snow Depth Not available.
UV 0 out of 12
Pollen .10 out of 12
Air Quality Not available.
Flu Activity Not available.
METAR KILN 270654Z AUTO 20004KT 10SM SCT055 04/00 A3018 RMK AO2 SLP237 T00440000

More Conditions Fewer Conditions

Pressure 30.23 in
Visibility 10.0 miles
Clouds Scattered Clouds 5500 ft
Windchill 43 °F
Dew Point 33 °F
Humidity 66%
Rainfall -999.00 in
Snow Depth Not available.
UV 0 out of 12
Pollen .10 out of 12
Air Quality Not available.
Flu Activity Not available.
METAR KILN 270654Z AUTO 20004KT 10SM SCT055 04/00 A3018 RMK AO2 SLP237 T00440000

More Conditions Fewer Conditions

10-Day Weather Forecast

Almanac

Astronomy

Dec. 27, 2014 Rise Set
Actual Time
Civil Twilight
Nautical Twilight
Astronomical Twilight
Moon
Length of Visible Light
Length of Day
Tomorrow will be .
, % of the Moon is Illuminated

Today's Extremes

State Highs State Lows

Community

WunderPhotos

Upload Photos

1,780,863 photos uploaded!

WunderBlogs® & News

Nearby

Air Quality

  Air Quality AQ Index Pollutant
Not available.

Snow Depth

Station Depth Elevation

Earthquake Activity

City Distance Mag. Time & Date
Minimum magnitude displayed is 2.5.

Coastal Water Temperatures

Place Temperature

Nearby Weather Stations